Time;durP1;ratioP1;P1;durP2;ratioP2;P2;SDS_P1;SDS_P2;PMS_P1;PMS_P2;Temp;Humidity;BMP_temperature;BMP_pressure;BME280_temperature;BME280_humidity;BME280_pressure;Samples;Min_cycle;Max_cycle;Signal;HPM_P1;HPM_P2
2022/12/08 00:01:28;;;;;;;7.87;5.60;;;1.40;99.90;;;;;;5023922;28;20206;-69
2022/12/08 00:03:55;;;;;;;9.70;5.90;;;1.50;99.90;;;;;;5024718;28;20208;-65
2022/12/08 00:09:22;;;;;;;9.57;5.50;;;1.50;99.90;;;;;;5024164;28;20211;-60
2022/12/08 00:12:04;;;;;;;10.60;5.30;;;1.60;99.90;;;;;;5023346;28;20948;-60
2022/12/08 00:14:38;;;;;;;9.13;5.90;;;1.60;99.90;;;;;;5024440;28;20210;-62
2022/12/08 00:17:05;;;;;;;11.97;5.50;;;1.60;99.90;;;;;;5025684;28;20207;-57
2022/12/08 00:19:31;;;;;;;7.47;5.30;;;1.60;99.90;;;;;;5016732;28;20610;-57
2022/12/08 00:21:57;;;;;;;11.93;6.87;;;1.60;99.90;;;;;;5002094;28;20213;-59
2022/12/08 00:24:28;;;;;;;9.93;4.87;;;1.60;99.90;;;;;;5004540;28;20207;-59
2022/12/08 00:26:53;;;;;;;7.17;5.17;;;1.60;99.90;;;;;;5019794;28;20703;-59
2022/12/08 00:29:19;;;;;;;10.37;6.60;;;1.70;99.90;;;;;;5015134;28;20202;-59
2022/12/08 00:31:44;;;;;;;9.43;6.13;;;1.70;99.90;;;;;;5004496;28;20283;-59
2022/12/08 00:34:11;;;;;;;9.93;7.03;;;1.80;99.90;;;;;;5004560;28;20960;-59
2022/12/08 00:36:37;;;;;;;10.00;6.50;;;1.80;99.90;;;;;;5003861;28;20232;-61
2022/12/08 00:39:03;;;;;;;14.30;7.03;;;1.90;99.90;;;;;;5004088;28;20202;-62
2022/12/08 00:44:14;;;;;;;10.47;5.57;;;1.90;99.90;;;;;;5008286;28;20331;-61
2022/12/08 00:46:40;;;;;;;9.80;5.70;;;1.90;99.90;;;;;;5005186;28;20228;-61
2022/12/08 00:49:06;;;;;;;7.47;5.23;;;1.90;99.90;;;;;;5003867;28;20253;-61
2022/12/08 00:51:32;;;;;;;9.13;6.63;;;1.90;99.90;;;;;;5002727;28;20617;-60
2022/12/08 00:53:58;;;;;;;11.13;5.90;;;1.90;99.90;;;;;;5002545;28;20210;-60
2022/12/08 00:56:23;;;;;;;9.33;6.73;;;1.90;99.90;;;;;;5006831;28;20688;-62
2022/12/08 00:58:49;;;;;;;6.63;4.97;;;1.90;99.90;;;;;;5004891;28;20828;-62
2022/12/08 01:01:15;;;;;;;7.70;6.03;;;2.00;99.90;;;;;;5003526;28;20224;-59
2022/12/08 01:03:41;;;;;;;11.07;7.03;;;1.90;99.90;;;;;;5004140;28;20993;-58
2022/12/08 01:06:07;;;;;;;10.53;6.40;;;2.00;99.90;;;;;;5004025;28;20256;-59
2022/12/08 01:08:34;;;;;;;7.87;5.90;;;2.00;99.90;;;;;;5003412;28;20703;-59
2022/12/08 01:11:08;;;;;;;8.87;6.57;;;2.00;99.90;;;;;;5003231;28;20194;-58
2022/12/08 01:13:33;;;;;;;9.37;6.13;;;2.00;99.90;;;;;;5004184;28;20200;-58
2022/12/08 01:15:59;;;;;;;9.40;6.40;;;2.10;99.90;;;;;;5006547;28;20235;-57
2022/12/08 01:18:26;;;;;;;11.47;6.70;;;2.10;99.90;;;;;;5003863;28;20216;-57
2022/12/08 01:20:51;;;;;;;8.27;6.60;;;2.10;99.90;;;;;;5003038;28;20206;-58
2022/12/08 01:23:17;;;;;;;9.63;6.83;;;2.10;99.90;;;;;;5002925;28;20210;-58
2022/12/08 01:25:43;;;;;;;12.13;6.97;;;2.20;99.90;;;;;;5002403;28;20320;-60
2022/12/08 01:28:08;;;;;;;12.90;7.60;;;2.20;99.90;;;;;;5004586;28;20228;-59
2022/12/08 01:30:33;;;;;;;9.37;6.00;;;2.20;99.90;;;;;;5006089;28;20191;-59
2022/12/08 01:33:00;;;;;;;9.07;6.40;;;2.20;99.90;;;;;;5006795;28;20202;-58
2022/12/08 01:35:25;;;;;;;8.23;5.83;;;2.20;99.90;;;;;;5005683;28;20220;-59
2022/12/08 01:37:51;;;;;;;7.77;6.03;;;2.20;99.90;;;;;;5004345;28;20208;-59
2022/12/08 01:40:16;;;;;;;6.73;5.97;;;2.20;99.90;;;;;;5002427;28;20213;-59
2022/12/08 01:42:42;;;;;;;10.90;6.33;;;2.20;99.90;;;;;;5002683;28;20244;-59
2022/12/08 01:45:34;;;;;;;8.53;6.20;;;2.20;99.90;;;;;;5004006;28;20617;-59
2022/12/08 01:48:04;;;;;;;7.43;5.90;;;2.20;99.90;;;;;;5008076;28;21035;-59
2022/12/08 01:50:31;;;;;;;13.37;6.47;;;2.30;99.90;;;;;;5004882;28;20280;-59
2022/12/08 01:53:00;;;;;;;6.80;6.10;;;2.30;99.90;;;;;;5002682;28;20208;-59
2022/12/08 01:55:32;;;;;;;6.37;5.77;;;2.30;99.90;;;;;;5007355;28;20278;-59
2022/12/08 01:58:04;;;;;;;6.90;6.07;;;2.30;99.90;;;;;;5005899;28;20233;-57
2022/12/08 02:00:30;;;;;;;9.23;6.57;;;2.30;99.90;;;;;;5004550;28;20203;-58
2022/12/08 02:03:05;;;;;;;11.47;6.23;;;2.30;99.90;;;;;;5008498;28;20755;-59
2022/12/08 02:05:34;;;;;;;8.80;6.93;;;2.30;99.90;;;;;;5001873;28;20202;-59
2022/12/08 02:08:05;;;;;;;8.17;6.70;;;2.30;99.90;;;;;;5006219;28;20272;-59
2022/12/08 02:10:34;;;;;;;8.10;6.30;;;2.30;99.90;;;;;;5002652;28;20224;-59
2022/12/08 02:13:01;;;;;;;11.30;6.90;;;2.30;99.90;;;;;;5005916;28;20202;-59
2022/12/08 02:15:41;;;;;;;9.00;6.23;;;2.30;99.90;;;;;;5006173;28;20269;-58
2022/12/08 02:18:19;;;;;;;8.57;7.75;;;2.40;99.90;;;;;;5005961;28;20407;-59
2022/12/08 02:20:59;;;;;;;8.67;6.77;;;2.40;99.90;;;;;;5018807;28;20207;-59
2022/12/08 02:23:31;;;;;;;7.93;6.43;;;2.50;99.90;;;;;;5014981;28;20356;-58
2022/12/08 02:26:42;;;;;;;7.50;6.70;;;2.40;99.90;;;;;;5020346;28;20193;-58
2022/12/08 02:29:35;;;;;;;7.73;5.90;;;2.40;99.90;;;;;;5014422;28;20610;-57
2022/12/08 02:32:34;;;;;;;5.77;5.00;;;2.50;99.90;;;;;;5017907;28;20213;-58
2022/12/08 02:35:13;;;;;;;7.13;5.47;;;2.40;99.90;;;;;;5014204;28;20800;-60
2022/12/08 02:37:48;;;;;;;8.73;5.37;;;2.40;99.90;;;;;;5016152;28;20296;-58
2022/12/08 02:40:24;;;;;;;8.87;6.37;;;2.40;99.90;;;;;;5009934;28;20209;-58
2022/12/08 02:42:56;;;;;;;5.87;5.27;;;2.40;99.90;;;;;;5021715;28;20263;-58
2022/12/08 02:45:29;;;;;;;6.23;5.07;;;2.40;99.90;;;;;;5017428;28;20244;-58
2022/12/08 02:47:56;;;;;;;7.70;4.63;;;2.40;99.90;;;;;;5015580;28;20202;-58
2022/12/08 02:50:22;;;;;;;6.10;4.70;;;2.30;99.90;;;;;;5017606;28;20663;-58
2022/12/08 02:52:48;;;;;;;4.53;4.10;;;2.30;99.90;;;;;;5016586;28;20211;-59
2022/12/08 02:55:20;;;;;;;5.47;4.67;;;2.40;99.90;;;;;;5007759;28;20768;-58
2022/12/08 02:58:14;;;;;;;6.00;4.63;;;2.30;99.90;;;;;;5017376;28;20231;-58
2022/12/08 03:01:09;;;;;;;7.10;3.77;;;2.30;99.90;;;;;;5017794;28;20195;-58
2022/12/08 03:04:04;;;;;;;4.57;4.00;;;2.30;99.90;;;;;;5017114;28;20213;-58
2022/12/08 03:06:37;;;;;;;4.40;3.73;;;2.30;99.90;;;;;;5016574;28;20197;-58
2022/12/08 03:09:28;;;;;;;5.53;4.70;;;2.30;99.90;;;;;;5015770;28;20649;-58
2022/12/08 03:12:31;;;;;;;8.60;4.83;;;2.30;99.90;;;;;;5013607;28;20305;-58
2022/12/08 03:15:01;;;;;;;4.87;4.33;;;2.30;99.90;;;;;;5015055;28;20200;-58
2022/12/08 03:17:29;;;;;;;4.70;4.13;;;2.30;99.90;;;;;;5016882;28;20748;-57
2022/12/08 03:19:59;;;;;;;7.27;4.40;;;2.30;99.90;;;;;;5019265;28;20291;-58
2022/12/08 03:22:26;;;;;;;6.60;4.03;;;2.40;99.90;;;;;;5024551;28;20212;-57
2022/12/08 03:24:52;;;;;;;6.83;3.80;;;2.30;99.90;;;;;;5024863;28;20182;-57
2022/12/08 03:27:28;;;;;;;5.07;4.57;;;2.30;99.90;;;;;;5024350;28;20787;-58
2022/12/08 03:29:57;;;;;;;4.27;3.87;;;2.30;99.90;;;;;;5024220;28;20180;-58
2022/12/08 03:32:29;;;;;;;4.47;3.67;;;2.30;99.90;;;;;;5005672;28;20196;-57
2022/12/08 03:34:56;;;;;;;3.47;3.17;;;2.40;99.90;;;;;;5005061;28;20279;-58
2022/12/08 03:37:22;;;;;;;5.23;4.03;;;2.30;99.90;;;;;;5004530;28;20187;-58
2022/12/08 03:39:48;;;;;;;3.43;3.07;;;2.40;99.90;;;;;;5001615;28;20237;-58
2022/12/08 03:42:13;;;;;;;4.30;3.90;;;2.30;99.90;;;;;;5007659;28;20214;-67
2022/12/08 03:44:39;;;;;;;4.17;3.70;;;2.30;99.90;;;;;;5014913;28;20225;-60
2022/12/08 03:47:04;;;;;;;4.47;4.07;;;2.30;99.90;;;;;;5016110;28;20836;-58
2022/12/08 03:49:30;;;;;;;4.53;3.90;;;2.30;99.90;;;;;;5016577;28;20262;-58
2022/12/08 03:51:55;;;;;;;4.00;3.60;;;2.30;99.90;;;;;;5016769;28;20200;-58
2022/12/08 03:54:20;;;;;;;5.53;4.67;;;2.30;99.90;;;;;;5016573;28;20356;-58
2022/12/08 03:56:46;;;;;;;5.63;4.97;;;2.30;99.90;;;;;;5016320;28;20264;-59
2022/12/08 03:59:12;;;;;;;5.10;4.30;;;2.20;99.90;;;;;;5014862;28;20258;-59
2022/12/08 04:01:37;;;;;;;6.73;4.90;;;2.30;99.90;;;;;;5016787;28;20696;-59
2022/12/08 04:04:03;;;;;;;5.83;4.83;;;2.30;99.90;;;;;;5016259;28;20224;-58
2022/12/08 04:06:28;;;;;;;6.57;5.13;;;2.30;99.90;;;;;;5015613;28;21587;-58
2022/12/08 04:08:54;;;;;;;6.10;5.10;;;2.30;99.90;;;;;;5015754;28;20201;-59
2022/12/08 04:11:20;;;;;;;8.00;5.53;;;2.30;99.90;;;;;;5019498;28;20725;-59
2022/12/08 04:13:46;;;;;;;6.87;5.83;;;2.30;99.90;;;;;;5009865;28;20625;-59
2022/12/08 04:16:18;;;;;;;5.90;5.10;;;2.30;99.90;;;;;;5015984;28;20553;-58
2022/12/08 04:18:44;;;;;;;7.07;5.77;;;2.20;99.90;;;;;;5015910;28;20236;-59
2022/12/08 04:21:10;;;;;;;8.67;6.40;;;2.20;99.90;;;;;;5015901;28;20639;-58
2022/12/08 04:23:35;;;;;;;7.63;6.37;;;2.20;99.90;;;;;;5014156;28;20311;-61
2022/12/08 04:26:01;;;;;;;7.03;5.87;;;2.30;99.90;;;;;;5015925;28;20464;-61
2022/12/08 04:28:28;;;;;;;7.07;6.03;;;2.20;99.90;;;;;;5015968;28;20309;-61
2022/12/08 04:30:54;;;;;;;6.10;5.50;;;2.20;99.90;;;;;;5015856;28;22110;-58
2022/12/08 04:33:19;;;;;;;6.20;5.60;;;2.20;99.90;;;;;;5015600;28;20208;-59
2022/12/08 04:35:45;;;;;;;9.10;6.50;;;2.20;99.90;;;;;;5014437;28;20212;-58
2022/12/08 04:38:10;;;;;;;7.00;6.30;;;2.20;99.90;;;;;;5018373;28;20212;-59
2022/12/08 04:40:36;;;;;;;7.93;6.70;;;2.20;99.90;;;;;;5010033;28;20213;-58
2022/12/08 04:43:01;;;;;;;9.33;7.40;;;2.20;99.90;;;;;;5013146;28;20724;-57
2022/12/08 04:45:27;;;;;;;11.57;7.00;;;2.20;99.90;;;;;;5014691;28;20200;-57
2022/12/08 04:47:52;;;;;;;10.00;7.13;;;2.20;99.90;;;;;;5015351;28;20205;-57
2022/12/08 04:50:18;;;;;;;10.20;7.93;;;2.30;99.90;;;;;;5013876;28;20307;-57
2022/12/08 04:52:43;;;;;;;9.87;7.97;;;2.30;99.90;;;;;;5014850;28;20241;-57
2022/12/08 04:55:09;;;;;;;8.57;7.27;;;2.30;99.90;;;;;;5015649;28;20268;-58
2022/12/08 04:57:34;;;;;;;9.80;7.77;;;2.20;99.90;;;;;;5007813;28;20229;-58
2022/12/08 05:00:00;;;;;;;10.87;8.20;;;2.30;99.90;;;;;;5005129;28;20241;-58
2022/12/08 05:02:25;;;;;;;9.83;7.60;;;2.30;99.90;;;;;;5016123;28;20212;-58
2022/12/08 05:04:51;;;;;;;9.33;7.97;;;2.30;99.90;;;;;;5005492;28;20336;-58
2022/12/08 05:07:16;;;;;;;10.67;7.63;;;2.30;99.90;;;;;;5002395;28;20283;-58
2022/12/08 05:09:42;;;;;;;11.27;9.10;;;2.30;99.90;;;;;;5005295;28;20202;-58
2022/12/08 05:12:07;;;;;;;10.03;8.07;;;2.30;99.90;;;;;;5016473;28;20201;-58
2022/12/08 05:14:33;;;;;;;11.10;8.40;;;2.30;99.90;;;;;;5005102;28;20205;-58
2022/12/08 05:16:58;;;;;;;10.00;7.53;;;2.40;99.90;;;;;;5005313;28;20233;-58
2022/12/08 05:19:24;;;;;;;12.77;8.83;;;2.40;99.90;;;;;;5004497;28;20587;-58
2022/12/08 05:21:49;;;;;;;12.20;8.70;;;2.40;99.90;;;;;;5005367;28;20201;-58
2022/12/08 05:24:15;;;;;;;10.17;8.43;;;2.40;99.90;;;;;;5015826;28;20220;-58
2022/12/08 05:26:41;;;;;;;13.60;9.67;;;2.40;99.90;;;;;;5012565;28;20649;-58
2022/12/08 05:29:06;;;;;;;12.17;9.70;;;2.40;99.90;;;;;;5015172;28;20671;-58
2022/12/08 05:31:31;;;;;;;12.47;9.20;;;2.40;99.90;;;;;;5017382;28;20258;-59
2022/12/08 05:33:57;;;;;;;11.60;9.50;;;2.40;99.90;;;;;;5010738;28;20196;-58
2022/12/08 05:36:22;;;;;;;10.27;8.70;;;2.40;99.90;;;;;;5018120;28;20563;-58
2022/12/08 05:38:48;;;;;;;12.40;10.40;;;2.40;99.90;;;;;;5012079;28;20770;-58
2022/12/08 05:41:19;;;;;;;12.53;10.00;;;2.40;99.90;;;;;;5015125;28;20568;-58
2022/12/08 05:43:46;;;;;;;10.97;9.00;;;2.40;99.90;;;;;;5012935;28;20241;-58
2022/12/08 05:46:12;;;;;;;13.07;10.80;;;2.40;99.90;;;;;;5017049;28;20214;-58
2022/12/08 05:48:38;;;;;;;12.17;10.73;;;2.40;99.90;;;;;;5017960;28;20208;-58
2022/12/08 05:51:04;;;;;;;13.77;9.63;;;2.50;99.90;;;;;;5018689;28;20209;-58
2022/12/08 05:53:29;;;;;;;14.67;9.57;;;2.50;99.90;;;;;;5018534;28;20201;-59
2022/12/08 05:55:55;;;;;;;12.83;10.23;;;2.60;99.90;;;;;;5016479;28;20208;-59
2022/12/08 05:58:21;;;;;;;14.60;9.67;;;2.60;99.90;;;;;;5018310;28;20215;-58
2022/12/08 06:00:49;;;;;;;14.07;11.07;;;2.60;99.90;;;;;;5017958;28;20424;-59
2022/12/08 06:03:16;;;;;;;16.77;10.33;;;2.60;99.90;;;;;;5018191;28;20811;-58
2022/12/08 06:05:43;;;;;;;15.57;10.37;;;2.60;99.90;;;;;;5017885;28;20193;-58
2022/12/08 06:08:10;;;;;;;14.23;10.63;;;2.60;99.90;;;;;;5016215;28;20212;-60
2022/12/08 06:10:38;;;;;;;14.90;10.73;;;2.60;99.90;;;;;;5009287;28;20640;-59
2022/12/08 06:13:04;;;;;;;17.07;10.20;;;2.60;99.90;;;;;;5018117;28;20704;-59
2022/12/08 06:15:29;;;;;;;16.97;10.07;;;2.60;99.90;;;;;;5018580;28;20205;-59
2022/12/08 06:17:55;;;;;;;15.53;9.37;;;2.60;99.90;;;;;;5018023;28;20635;-66
2022/12/08 06:20:20;;;;;;;14.77;10.60;;;2.70;99.90;;;;;;5016304;28;20199;-59
2022/12/08 06:22:45;;;;;;;12.50;10.67;;;2.70;99.90;;;;;;5021679;28;20232;-59
2022/12/08 06:25:11;;;;;;;12.37;10.53;;;2.70;99.90;;;;;;5014025;28;20197;-60
2022/12/08 06:27:37;;;;;;;12.43;9.50;;;2.70;99.90;;;;;;5024805;28;20660;-59
2022/12/08 06:30:03;;;;;;;11.83;10.20;;;2.70;99.90;;;;;;5025731;28;20302;-59
2022/12/08 06:32:28;;;;;;;13.87;10.90;;;2.70;99.90;;;;;;5028774;28;20211;-59
2022/12/08 06:34:54;;;;;;;13.53;11.07;;;2.70;99.90;;;;;;5024945;28;20190;-59
2022/12/08 06:37:19;;;;;;;15.03;10.53;;;2.70;99.90;;;;;;5027984;28;20303;-59
2022/12/08 06:39:44;;;;;;;15.27;10.53;;;2.70;99.90;;;;;;5027846;28;20259;-59
2022/12/08 06:45:00;;;;;;;14.87;10.60;;;2.70;99.90;;;;;;5024263;28;20239;-60
2022/12/08 06:47:26;;;;;;;15.43;10.90;;;2.70;99.90;;;;;;5022346;28;20232;-60
2022/12/08 06:49:52;;;;;;;18.90;11.70;;;2.70;99.90;;;;;;5027804;28;20298;-59
2022/12/08 06:52:17;;;;;;;16.00;11.90;;;2.80;99.90;;;;;;5025268;28;20545;-59
2022/12/08 06:54:43;;;;;;;14.87;11.43;;;2.80;99.90;;;;;;5006101;28;20202;-58
2022/12/08 06:57:08;;;;;;;14.87;11.80;;;2.70;99.90;;;;;;5025559;28;20320;-58
2022/12/08 06:59:34;;;;;;;13.53;10.43;;;2.80;99.90;;;;;;5017637;28;20514;-59
2022/12/08 07:01:59;;;;;;;15.47;10.87;;;2.80;99.90;;;;;;5021911;28;20205;-58
2022/12/08 07:04:24;;;;;;;18.33;11.23;;;2.90;99.90;;;;;;5013972;28;20353;-58
2022/12/08 07:06:50;;;;;;;16.73;10.63;;;2.90;99.90;;;;;;5015474;28;20259;-58
2022/12/08 07:09:15;;;;;;;17.23;10.87;;;2.90;99.90;;;;;;5018138;28;20203;-58
2022/12/08 07:11:41;;;;;;;17.03;10.43;;;2.90;99.90;;;;;;5026867;28;20266;-60
2022/12/08 07:14:06;;;;;;;16.37;12.23;;;2.90;99.90;;;;;;5026896;28;20209;-58
2022/12/08 07:16:32;;;;;;;14.60;10.23;;;2.90;99.90;;;;;;5021121;28;20932;-58
2022/12/08 07:18:58;;;;;;;19.33;11.37;;;3.00;99.90;;;;;;5017169;28;20202;-58
2022/12/08 07:21:24;;;;;;;17.07;11.53;;;3.00;99.90;;;;;;5016831;28;20204;-58
2022/12/08 07:23:50;;;;;;;17.07;10.63;;;3.00;99.90;;;;;;5013649;28;20220;-59
2022/12/08 07:26:16;;;;;;;17.67;10.97;;;3.00;99.90;;;;;;5010573;28;20617;-57
2022/12/08 07:28:42;;;;;;;15.90;10.53;;;3.00;99.90;;;;;;5013470;28;20208;-59
2022/12/08 07:31:19;;;;;;;16.00;11.20;;;3.00;99.90;;;;;;5014231;28;20197;-59
2022/12/08 07:33:45;;;;;;;18.13;10.07;;;3.00;99.90;;;;;;5015192;28;20436;-58
2022/12/08 07:36:11;;;;;;;16.20;11.83;;;3.00;99.90;;;;;;5012952;28;20214;-66
2022/12/08 07:38:36;;;;;;;16.53;10.53;;;3.10;99.90;;;;;;5015803;28;20231;-55
2022/12/08 07:41:01;;;;;;;14.40;11.50;;;3.10;99.90;;;;;;5016852;28;20254;-54
2022/12/08 07:43:27;;;;;;;14.20;9.63;;;3.20;99.90;;;;;;5014686;28;20209;-55
2022/12/08 07:45:52;;;;;;;15.37;9.87;;;3.20;99.90;;;;;;5016477;28;20200;-55
2022/12/08 07:48:18;;;;;;;19.30;10.37;;;3.20;99.90;;;;;;5016862;28;20579;-55
2022/12/08 07:50:44;;;;;;;11.93;9.60;;;3.30;99.90;;;;;;5019567;28;20201;-54
2022/12/08 07:53:10;;;;;;;15.97;10.37;;;3.30;99.90;;;;;;5013504;28;20250;-54
2022/12/08 07:55:42;;;;;;;19.43;11.07;;;3.30;99.90;;;;;;5015033;28;20214;-55
2022/12/08 07:58:09;;;;;;;13.90;9.47;;;3.30;99.90;;;;;;5016894;28;20230;-55
2022/12/08 08:00:35;;;;;;;14.20;10.40;;;3.30;99.90;;;;;;5016843;28;20237;-55
2022/12/08 08:03:01;;;;;;;13.67;9.73;;;3.40;99.90;;;;;;5014502;28;20215;-54
2022/12/08 08:05:28;;;;;;;19.67;10.43;;;3.40;99.90;;;;;;5018905;28;20220;-55
2022/12/08 08:07:54;;;;;;;14.97;9.53;;;3.40;99.90;;;;;;5024348;28;20234;-55
2022/12/08 08:10:19;;;;;;;16.63;9.53;;;3.50;99.90;;;;;;5025928;28;20750;-56
2022/12/08 08:12:45;;;;;;;16.33;10.57;;;3.50;99.90;;;;;;5024732;28;20214;-58
2022/12/08 08:15:11;;;;;;;19.63;11.07;;;3.50;99.90;;;;;;5016352;28;20207;-57
2022/12/08 08:17:36;;;;;;;13.93;10.33;;;3.50;99.90;;;;;;5025172;28;20211;-57
2022/12/08 08:20:05;;;;;;;13.17;10.20;;;3.50;99.90;;;;;;5023873;28;20338;-57
2022/12/08 08:22:32;;;;;;;15.53;10.00;;;3.50;99.90;;;;;;5024372;28;20218;-57
2022/12/08 08:24:57;;;;;;;12.60;9.40;;;3.50;99.90;;;;;;5008495;28;20192;-58
2022/12/08 08:27:23;;;;;;;13.73;10.10;;;3.50;99.90;;;;;;5015794;28;20205;-58
2022/12/08 08:29:49;;;;;;;18.83;10.20;;;3.40;99.90;;;;;;5015708;28;20298;-58
2022/12/08 08:32:15;;;;;;;11.53;8.73;;;3.50;99.90;;;;;;5014633;28;20721;-58
2022/12/08 08:34:40;;;;;;;11.53;8.77;;;3.50;99.90;;;;;;5005098;28;20484;-56
2022/12/08 08:37:06;;;;;;;14.43;9.63;;;3.60;99.90;;;;;;5007369;28;20246;-56
2022/12/08 08:39:31;;;;;;;14.77;8.87;;;3.50;99.90;;;;;;5004985;28;20202;-56
2022/12/08 08:41:57;;;;;;;19.33;9.80;;;3.50;99.90;;;;;;5004257;28;20721;-56
2022/12/08 08:44:22;;;;;;;13.90;9.90;;;3.60;99.90;;;;;;5014474;28;20295;-56
2022/12/08 08:46:48;;;;;;;14.07;9.37;;;3.60;99.90;;;;;;5010793;28;20426;-56
2022/12/08 08:49:13;;;;;;;16.10;8.90;;;3.60;99.90;;;;;;5008322;28;20214;-77
2022/12/08 08:51:39;;;;;;;11.37;10.17;;;3.60;99.90;;;;;;5005940;28;20211;-62
2022/12/08 08:54:04;;;;;;;15.87;9.13;;;3.70;99.90;;;;;;5017855;28;20221;-61
2022/12/08 08:56:30;;;;;;;11.47;9.03;;;3.70;99.90;;;;;;5012302;28;20880;-62
2022/12/08 08:58:55;;;;;;;15.97;9.93;;;3.70;99.90;;;;;;5015086;28;20255;-64
2022/12/08 09:01:23;;;;;;;11.33;9.73;;;3.70;99.90;;;;;;5014778;28;20220;-63
2022/12/08 09:03:49;;;;;;;11.50;9.50;;;3.80;99.90;;;;;;5009841;28;20341;-64
2022/12/08 09:06:16;;;;;;;10.73;9.17;;;3.80;99.90;;;;;;5008163;28;20198;-63
2022/12/08 09:08:42;;;;;;;15.97;9.90;;;3.80;99.90;;;;;;5008224;28;20188;-62
2022/12/08 09:11:08;;;;;;;12.30;9.57;;;3.90;99.90;;;;;;5004550;28;20196;-64
2022/12/08 09:13:33;;;;;;;16.57;10.13;;;3.90;99.90;;;;;;5007696;28;20290;-62
2022/12/08 09:16:03;;;;;;;11.60;9.30;;;3.90;99.90;;;;;;5003235;28;20199;-63
2022/12/08 09:18:29;;;;;;;12.10;9.00;;;3.80;99.90;;;;;;5013816;28;20367;-69
2022/12/08 09:20:55;;;;;;;12.40;9.87;;;3.80;99.90;;;;;;5015003;28;20782;-62
2022/12/08 09:23:20;;;;;;;13.20;9.70;;;3.80;99.90;;;;;;5020245;28;20766;-62
2022/12/08 09:25:46;;;;;;;14.63;9.47;;;3.80;99.90;;;;;;5020786;28;20188;-61
2022/12/08 09:28:12;;;;;;;14.60;10.87;;;3.80;99.90;;;;;;5017911;28;20187;-61
2022/12/08 09:30:38;;;;;;;11.40;9.70;;;3.80;99.90;;;;;;5019382;28;20723;-61
2022/12/08 09:33:04;;;;;;;13.70;10.13;;;3.80;99.90;;;;;;5024182;28;20215;-61
2022/12/08 09:35:29;;;;;;;13.70;9.93;;;3.70;99.90;;;;;;5020152;28;20201;-61
2022/12/08 09:37:54;;;;;;;11.03;9.33;;;3.80;99.90;;;;;;5017478;28;20209;-69
2022/12/08 09:40:23;;;;;;;19.17;11.47;;;3.80;99.90;;;;;;5018480;28;20207;-68
2022/12/08 09:43:03;;;;;;;14.83;10.23;;;3.90;99.90;;;;;;5019745;28;20211;-68
2022/12/08 09:45:34;;;;;;;15.67;10.43;;;3.90;99.90;;;;;;5010299;28;20199;-65
2022/12/08 09:48:16;;;;;;;15.57;10.37;;;4.00;99.90;;;;;;5009602;28;20544;-66
2022/12/08 09:50:51;;;;;;;14.63;9.97;;;4.00;99.90;;;;;;5008757;28;20193;-67
2022/12/08 09:53:23;;;;;;;15.20;10.53;;;3.90;99.90;;;;;;5009171;28;20207;-68
2022/12/08 09:55:56;;;;;;;14.07;10.20;;;3.90;99.90;;;;;;5008049;28;20207;-66
2022/12/08 09:58:51;;;;;;;12.70;10.43;;;4.00;99.90;;;;;;5007570;28;20209;-65
2022/12/08 10:01:19;;;;;;;13.13;10.77;;;4.00;99.90;;;;;;5007004;28;20200;-66
2022/12/08 10:03:45;;;;;;;13.27;10.20;;;4.00;99.90;;;;;;5008409;28;20285;-66
2022/12/08 10:06:38;;;;;;;17.03;9.83;;;4.00;99.90;;;;;;5007848;28;20960;-65
2022/12/08 10:09:41;;;;;;;12.90;10.30;;;4.00;99.90;;;;;;5011362;28;20279;-65
2022/12/08 10:12:13;;;;;;;15.23;11.00;;;4.00;99.90;;;;;;5008679;28;20204;-65
2022/12/08 10:15:16;;;;;;;14.77;9.90;;;3.90;99.90;;;;;;5010374;28;20200;-70
2022/12/08 10:17:52;;;;;;;14.83;10.37;;;3.90;99.90;;;;;;5010771;28;20212;-65
2022/12/08 10:20:24;;;;;;;21.07;11.27;;;3.90;99.90;;;;;;5007534;28;20277;-64
2022/12/08 10:23:00;;;;;;;17.83;11.80;;;3.90;99.90;;;;;;5008937;28;21026;-66
2022/12/08 10:25:37;;;;;;;15.13;10.37;;;3.90;99.90;;;;;;5008674;28;20753;-64
2022/12/08 10:28:02;;;;;;;11.87;8.70;;;4.00;99.90;;;;;;5007852;28;20730;-65
2022/12/08 10:30:30;;;;;;;13.57;9.90;;;4.00;99.90;;;;;;5007278;28;20232;-63
2022/12/08 10:32:56;;;;;;;26.13;11.40;;;4.00;99.90;;;;;;5011394;28;20265;-65
2022/12/08 10:35:24;;;;;;;12.63;9.87;;;4.00;99.90;;;;;;5012543;28;20231;-60
2022/12/08 10:38:01;;;;;;;10.57;8.77;;;4.00;99.90;;;;;;5011941;28;20220;-62
2022/12/08 10:40:28;;;;;;;21.53;10.07;;;4.10;99.90;;;;;;5008627;28;20199;-61
2022/12/08 10:42:58;;;;;;;9.67;7.40;;;4.10;99.90;;;;;;5003536;28;20218;-62
2022/12/08 10:45:30;;;;;;;11.43;9.07;;;4.10;99.90;;;;;;5007551;28;20200;-63
2022/12/08 10:48:03;;;;;;;12.10;8.23;;;4.10;99.90;;;;;;5008486;28;20283;-60
2022/12/08 10:50:45;;;;;;;13.80;8.37;;;4.20;99.90;;;;;;5007967;28;20203;-62
2022/12/08 10:53:14;;;;;;;13.10;8.27;;;4.20;99.90;;;;;;5007775;28;20734;-61
2022/12/08 10:55:49;;;;;;;11.00;8.43;;;4.20;99.90;;;;;;5011783;28;20275;-60
2022/12/08 10:58:24;;;;;;;14.03;8.07;;;4.10;99.90;;;;;;5009187;28;20717;-60
2022/12/08 11:00:53;;;;;;;9.67;8.73;;;4.10;99.90;;;;;;5010156;28;20580;-62
2022/12/08 11:03:26;;;;;;;12.70;9.13;;;4.10;99.90;;;;;;5009862;28;20244;-64
2022/12/08 11:05:56;;;;;;;8.97;8.07;;;4.10;99.90;;;;;;5008880;28;20196;-62
2022/12/08 11:08:21;;;;;;;12.80;8.13;;;4.10;99.90;;;;;;5010950;28;20212;-62
2022/12/08 11:10:47;;;;;;;10.63;8.60;;;4.10;99.90;;;;;;5006914;28;20195;-62
2022/12/08 11:13:23;;;;;;;13.73;8.30;;;4.00;99.90;;;;;;5006057;28;20252;-62
2022/12/08 11:15:50;;;;;;;9.63;8.63;;;3.90;99.90;;;;;;5007678;28;20203;-62
2022/12/08 11:18:37;;;;;;;13.83;8.40;;;3.80;99.90;;;;;;5008258;28;20203;-64
2022/12/08 11:21:35;;;;;;;10.00;8.27;;;3.60;99.90;;;;;;5008019;28;20848;-64
2022/12/08 11:24:19;;;;;;;12.03;8.33;;;3.50;99.90;;;;;;5006733;28;20224;-65
2022/12/08 11:26:51;;;;;;;8.57;7.67;;;3.40;99.90;;;;;;5008495;28;20196;-64
2022/12/08 11:29:17;;;;;;;15.53;9.33;;;3.30;99.90;;;;;;5007164;28;20221;-65
2022/12/08 11:31:48;;;;;;;10.03;8.20;;;3.20;99.90;;;;;;5005649;28;20230;-65
2022/12/08 11:34:22;;;;;;;12.77;9.17;;;3.20;99.90;;;;;;5009581;28;20210;-66
2022/12/08 11:36:50;;;;;;;16.60;10.43;;;3.20;99.90;;;;;;5006862;28;20205;-61
2022/12/08 11:39:16;;;;;;;14.17;11.10;;;3.20;99.90;;;;;;5007065;28;20293;-62
2022/12/08 11:41:44;;;;;;;15.27;10.10;;;3.20;99.90;;;;;;5007336;28;20234;-61
2022/12/08 11:44:32;;;;;;;15.77;11.77;;;3.20;99.90;;;;;;5009453;28;20226;-61
2022/12/08 11:47:04;;;;;;;11.70;9.50;;;3.20;99.90;;;;;;5007503;28;20244;-61
2022/12/08 11:49:36;;;;;;;15.97;10.63;;;3.30;99.90;;;;;;5006976;28;20288;-62
2022/12/08 11:52:13;;;;;;;16.57;11.33;;;3.20;99.90;;;;;;5005162;28;20768;-62
2022/12/08 11:54:50;;;;;;;19.23;12.17;;;3.20;99.90;;;;;;5007941;28;20958;-61
2022/12/08 11:57:19;;;;;;;17.27;12.80;;;3.30;99.90;;;;;;5008363;28;20316;-60
2022/12/08 11:59:48;;;;;;;16.97;12.17;;;3.30;99.90;;;;;;5007381;28;20229;-60
2022/12/08 12:02:18;;;;;;;17.50;12.90;;;3.30;99.90;;;;;;5007370;28;20206;-60
2022/12/08 12:04:50;;;;;;;18.00;11.67;;;3.40;99.90;;;;;;5005081;28;20215;-61
2022/12/08 12:07:31;;;;;;;18.60;12.20;;;3.30;99.90;;;;;;5007727;28;20210;-61
2022/12/08 12:10:28;;;;;;;16.97;13.10;;;3.40;99.90;;;;;;5005270;28;20294;-61
2022/12/08 12:13:28;;;;;;;15.93;11.07;;;3.40;99.90;;;;;;5011073;28;20207;-64
2022/12/08 12:16:15;;;;;;;17.13;13.33;;;3.40;99.90;;;;;;5009277;28;20234;-64
2022/12/08 12:18:45;;;;;;;16.37;12.33;;;3.50;99.90;;;;;;5016977;28;20199;-64
2022/12/08 12:21:41;;;;;;;14.63;11.17;;;3.50;99.90;;;;;;5016744;28;20588;-63
2022/12/08 12:24:17;;;;;;;20.30;13.23;;;3.60;99.90;;;;;;5016028;28;20228;-62
2022/12/08 12:26:59;;;;;;;16.40;12.10;;;3.70;99.90;;;;;;5014179;28;20241;-62
2022/12/08 12:29:30;;;;;;;15.93;11.80;;;3.70;99.90;;;;;;5016153;28;20201;-63
2022/12/08 12:32:00;;;;;;;18.60;11.43;;;3.80;99.90;;;;;;5014740;28;20198;-64
2022/12/08 12:34:35;;;;;;;15.90;11.60;;;3.80;99.90;;;;;;5016463;28;20207;-62
2022/12/08 12:37:03;;;;;;;13.00;10.37;;;3.80;99.90;;;;;;5017707;28;20666;-62
2022/12/08 12:39:31;;;;;;;16.00;11.53;;;3.80;99.90;;;;;;5013538;28;20212;-62
2022/12/08 12:41:59;;;;;;;19.73;11.23;;;3.80;99.90;;;;;;5015192;28;20225;-60
2022/12/08 12:44:28;;;;;;;19.80;12.53;;;3.90;99.90;;;;;;5014701;28;20227;-61
2022/12/08 12:46:59;;;;;;;13.67;11.37;;;3.90;99.90;;;;;;5014957;28;20303;-61
2022/12/08 12:49:39;;;;;;;13.20;9.73;;;4.00;99.90;;;;;;5018704;28;20203;-61
2022/12/08 12:52:14;;;;;;;13.83;10.10;;;3.90;99.90;;;;;;5013585;28;20202;-61
2022/12/08 12:54:48;;;;;;;13.60;10.30;;;3.90;99.90;;;;;;5015274;28;20310;-61
2022/12/08 12:57:17;;;;;;;13.77;11.37;;;4.00;99.90;;;;;;5015662;28;20594;-62
2022/12/08 13:00:04;;;;;;;13.13;10.33;;;4.00;99.90;;;;;;5015580;28;20206;-61
2022/12/08 13:02:53;;;;;;;11.80;9.33;;;4.00;99.90;;;;;;5014665;28;21206;-62
2022/12/08 13:05:25;;;;;;;11.50;9.40;;;3.90;99.90;;;;;;5015236;28;20223;-61
2022/12/08 13:08:01;;;;;;;12.93;9.10;;;3.90;99.90;;;;;;5015518;28;20694;-61